الصفحة الرئيسية
METAR-TAF:

METAR-TAF

مطار :

بورت أوف سبين, ترينيداد, ترينيداد وتوباغو

دائرة عرض: 10-37N, خط طول: 061-21W, ارتفاع: 12 متر

مراقبة الطقس الحالي

تاريخ ووقت الإصدار 55 دقيقة قبل الساعة 04:00UTC
رياح هادئة
درجة الحرارة 25°درجة مئوية
الرطوبة 94%
ضغط 1016 hPa
الرؤية 10 كم أو أكثر
غيوم قليلة على ارتفاع 1400 قدم

METAR: TTPP 180400Z 00000KT 9999 FEW014 25/24 Q1016 NOSIG

زمن: 00:55 (04:55 UTC)

توقعات

تاريخ ووقت الإصدار 6ساعات و 55 دقيقة قبل الساعة 22:00UTC
التوقعات صالحة من18 الساعة 00 UTC إلى 18 الساعة 24 UTC
ريح عقدة من الشمال
الرؤية 10 كم أو أكثر
غيوم قليلة على ارتفاع 1800 قدم
غيوم متفرقة على ارتفاع 3500 قدم
نظرية الاحتمالات 30% :
مؤقت
من 18 الساعة 06 UTC إلى 18 الساعة 12 UTC
الرؤية: 5000 متر
غيوم قليلة على ارتفاع 1200 قدم, مزنة ركامية.
غيوم مفككة على ارتفاع 1500 قدم
زخات من المطر
أصبح
من 18 الساعة 12 UTC إلى 18 الساعة 14 UTC
ريح 10 عقدة من الشرق
غيوم متفرقة على ارتفاع 1800 قدم
غيوم متفرقة على ارتفاع 3500 قدم
زخات في الجوار

TAF: TTPP 172200Z 1800/1824 00000KT 9999 FEW018 SCT035 PROB30 TEMPO 1806/1812 5000 SHRA FEW012CB BKN015 BECMG 1812/1814 09010KT VCSH SCT018 SCT035

أرصاد الطقس والتوقعات من أكثر من 4000 مطار (تقارير الطقس للمطار METAR والتنبؤ بالطقس بالمطارTAF).

المحطات المتاحة هي النقط الصفراء والحمراء على الخريطة.

حرك المؤشر فوق النقطة لمعرفة اسم المحطة.

ثم انقر لمعرفة أرصاد وتوقعات الطقس.

لتغيير الخارطة: اضغط على الأزرار الخضراء مع رمز الصليب الأسود للتكبير. على الزر الأخضر مع شرطة للتصغير، أو على الأسهم الخضراء للخرائط المجاورة.


METAR-TAF: